Time;durP1;ratioP1;P1;durP2;ratioP2;P2;SDS_P1;SDS_P2;PMS_P1;PMS_P2;Temp;Humidity;BMP_temperature;BMP_pressure;BME280_temperature;BME280_humidity;BME280_pressure;Samples;Min_cycle;Max_cycle;Signal;HPM_P1;HPM_P2
2023/04/17 00:01:39;;;;;;;43.15;25.08;;;10.00;99.90;;;;;;6065660;23;95879;-77
2023/04/17 00:04:09;;;;;;;47.80;28.10;;;10.00;99.90;;;;;;6065950;23;92422;-77
2023/04/17 00:06:37;;;;;;;50.15;29.02;;;10.00;99.90;;;;;;6065895;23;92834;-77
2023/04/17 00:09:04;;;;;;;46.72;27.50;;;10.00;99.90;;;;;;6063942;23;95644;-77
2023/04/17 00:11:31;;;;;;;44.85;27.45;;;10.00;99.90;;;;;;6063599;23;95573;-77
2023/04/17 00:13:58;;;;;;;46.95;27.48;;;10.00;99.90;;;;;;6064561;23;93043;-78
2023/04/17 00:16:26;;;;;;;48.00;27.02;;;10.00;99.90;;;;;;6066031;23;91719;-78
2023/04/17 00:18:53;;;;;;;43.80;27.38;;;10.10;99.90;;;;;;6063988;23;95943;-78
2023/04/17 00:21:21;;;;;;;54.55;30.20;;;10.10;99.90;;;;;;6088195;23;92730;-78
2023/04/17 00:23:48;;;;;;;45.03;27.08;;;10.10;99.90;;;;;;6062843;23;94885;-79
2023/04/17 00:26:15;;;;;;;49.30;27.90;;;10.10;99.90;;;;;;6088816;23;92477;-79
2023/04/17 00:28:42;;;;;;;46.47;28.23;;;10.10;99.90;;;;;;6065732;23;93090;-78
2023/04/17 00:31:09;;;;;;;46.40;27.02;;;10.00;99.90;;;;;;6064058;23;96960;-78
2023/04/17 00:33:36;;;;;;;45.63;28.50;;;10.10;99.90;;;;;;6067338;23;92452;-78
2023/04/17 00:36:03;;;;;;;47.10;27.85;;;10.10;99.90;;;;;;6068986;23;92463;-78
2023/04/17 00:38:30;;;;;;;44.88;26.50;;;10.10;99.90;;;;;;6068952;23;93174;-78
2023/04/17 00:40:57;;;;;;;40.35;26.05;;;10.10;99.90;;;;;;6095723;23;91950;-78
2023/04/17 00:43:24;;;;;;;49.78;28.88;;;10.10;99.90;;;;;;6068703;23;92415;-79
2023/04/17 00:45:53;;;;;;;44.80;27.58;;;10.10;99.90;;;;;;6045247;23;92445;-78
2023/04/17 00:48:22;;;;;;;45.28;25.60;;;10.10;99.90;;;;;;6042908;23;98058;-78
2023/04/17 00:50:52;;;;;;;42.83;27.13;;;10.10;99.90;;;;;;6094968;23;95111;-78
2023/04/17 00:53:19;;;;;;;45.13;26.25;;;10.10;99.90;;;;;;6045363;23;92545;-79
2023/04/17 00:55:49;;;;;;;47.10;27.25;;;10.10;99.90;;;;;;6095098;23;92457;-79
2023/04/17 00:58:16;;;;;;;40.88;26.77;;;10.10;99.90;;;;;;6094978;23;93171;-78
2023/04/17 01:00:44;;;;;;;45.63;25.48;;;10.10;99.90;;;;;;6094793;23;93264;-78
2023/04/17 01:03:11;;;;;;;44.40;24.42;;;10.10;99.90;;;;;;6068766;23;92435;-78
2023/04/17 01:05:39;;;;;;;41.67;26.48;;;10.00;99.90;;;;;;6068984;23;91704;-78
2023/04/17 01:08:06;;;;;;;45.17;25.70;;;10.00;99.90;;;;;;6068626;23;95883;-78
2023/04/17 01:10:33;;;;;;;52.88;28.85;;;10.00;99.90;;;;;;6044129;23;95282;-78
2023/04/17 01:13:05;;;;;;;48.35;28.02;;;10.00;99.90;;;;;;6043206;23;94843;-79
2023/04/17 01:15:35;;;;;;;45.63;26.13;;;10.10;99.90;;;;;;6068577;23;92445;-78
2023/04/17 01:18:03;;;;;;;46.20;27.35;;;10.10;99.90;;;;;;6094967;23;93076;-78
2023/04/17 01:20:31;;;;;;;38.97;24.77;;;10.10;99.90;;;;;;6068348;23;94214;-79
2023/04/17 01:22:58;;;;;;;40.75;25.40;;;10.00;99.90;;;;;;6069261;23;93351;-79
2023/04/17 01:25:27;;;;;;;37.88;23.88;;;10.00;99.90;;;;;;6068625;23;93049;-78
2023/04/17 01:27:55;;;;;;;42.30;24.50;;;10.00;99.90;;;;;;6068380;23;95704;-78
2023/04/17 01:30:23;;;;;;;39.53;25.05;;;10.00;99.90;;;;;;6068840;23;94415;-79
2023/04/17 01:33:05;;;;;;;39.78;24.67;;;10.00;99.90;;;;;;6068562;23;92418;-78
2023/04/17 01:35:32;;;;;;;41.35;24.77;;;9.90;99.90;;;;;;6068263;23;92444;-78
2023/04/17 01:37:59;;;;;;;41.13;23.40;;;9.90;99.90;;;;;;6093473;23;95622;-78
2023/04/17 01:40:26;;;;;;;36.15;23.70;;;9.90;99.90;;;;;;6068535;23;95465;-79
2023/04/17 01:42:53;;;;;;;40.22;23.25;;;9.90;99.90;;;;;;6044334;23;92355;-79
2023/04/17 01:45:20;;;;;;;37.83;23.70;;;9.90;99.90;;;;;;6068718;23;92750;-79
2023/04/17 01:47:47;;;;;;;43.38;24.67;;;9.80;99.90;;;;;;6068667;23;95164;-78
2023/04/17 01:50:14;;;;;;;46.95;25.08;;;9.80;99.90;;;;;;6044315;23;95323;-79
2023/04/17 01:52:41;;;;;;;43.58;25.77;;;9.70;99.90;;;;;;6068258;23;92406;-78
2023/04/17 01:55:09;;;;;;;47.20;24.77;;;9.70;99.90;;;;;;6044738;23;91632;-78
2023/04/17 01:57:35;;;;;;;45.60;24.88;;;9.70;99.90;;;;;;6044610;23;92992;-78
2023/04/17 02:00:08;;;;;;;46.60;26.05;;;9.60;99.90;;;;;;6068282;23;95843;-78
2023/04/17 02:02:38;;;;;;;48.47;26.20;;;9.60;99.90;;;;;;6093327;23;95171;-78
2023/04/17 02:05:06;;;;;;;45.20;26.17;;;9.60;99.90;;;;;;6044455;23;92447;-78
2023/04/17 02:07:32;;;;;;;49.30;26.10;;;9.50;99.90;;;;;;6094255;23;92918;-79
2023/04/17 02:09:59;;;;;;;47.03;26.77;;;9.50;99.90;;;;;;6044141;23;95451;-78
2023/04/17 02:12:26;;;;;;;51.40;27.60;;;9.50;99.90;;;;;;6094846;23;92461;-78
2023/04/17 02:14:53;;;;;;;47.65;27.25;;;9.50;99.90;;;;;;6068015;23;97166;-78
2023/04/17 02:17:20;;;;;;;54.83;28.77;;;9.40;99.90;;;;;;6043930;23;95751;-78
2023/04/17 02:19:47;;;;;;;52.22;27.10;;;9.40;99.90;;;;;;6068918;23;93077;-78
2023/04/17 02:22:14;;;;;;;54.33;28.83;;;9.40;99.90;;;;;;6068666;23;92418;-78
2023/04/17 02:24:41;;;;;;;57.92;28.58;;;9.40;99.90;;;;;;6095377;23;92391;-78
2023/04/17 02:27:08;;;;;;;51.78;27.85;;;9.40;99.90;;;;;;6094158;23;95622;-78
2023/04/17 02:29:35;;;;;;;54.75;29.58;;;9.40;99.90;;;;;;6069721;23;95722;-79
2023/04/17 02:32:02;;;;;;;56.22;28.77;;;9.40;99.90;;;;;;6069508;23;92410;-78
2023/04/17 02:34:29;;;;;;;54.80;29.25;;;9.40;99.90;;;;;;6095707;23;92338;-78
2023/04/17 02:36:56;;;;;;;58.65;30.85;;;9.50;99.90;;;;;;6044849;23;95455;-79
2023/04/17 02:39:24;;;;;;;61.88;30.23;;;9.50;99.90;;;;;;6095614;23;93016;-78
2023/04/17 02:41:51;;;;;;;53.45;29.88;;;9.50;99.90;;;;;;6045324;23;92400;-78
2023/04/17 02:44:18;;;;;;;57.28;28.42;;;9.50;99.90;;;;;;6096141;23;91608;-78
2023/04/17 02:46:45;;;;;;;57.47;28.73;;;9.60;99.90;;;;;;6069031;23;95701;-79
2023/04/17 02:49:12;;;;;;;55.45;28.70;;;9.60;99.90;;;;;;6045049;23;93904;-79
2023/04/17 02:51:39;;;;;;;54.60;28.70;;;9.60;99.90;;;;;;6092611;23;94820;-78
2023/04/17 02:54:06;;;;;;;64.72;30.42;;;9.60;99.90;;;;;;6095711;23;92464;-79
2023/04/17 02:56:33;;;;;;;62.70;30.52;;;9.60;99.90;;;;;;6045129;23;95728;-78
2023/04/17 02:59:00;;;;;;;59.50;28.20;;;9.60;99.90;;;;;;6069258;23;95314;-78
2023/04/17 03:01:28;;;;;;;71.95;32.20;;;9.60;99.90;;;;;;6069379;23;92469;-79
2023/04/17 03:03:55;;;;;;;67.00;29.90;;;9.60;99.90;;;;;;6069279;23;93319;-78
2023/04/17 03:06:23;;;;;;;68.97;31.50;;;9.60;99.90;;;;;;6045194;23;95410;-79
2023/04/17 03:08:50;;;;;;;80.28;32.50;;;9.60;99.90;;;;;;6069375;23;95615;-79
2023/04/17 03:11:17;;;;;;;74.18;32.70;;;9.60;99.90;;;;;;6069235;23;92566;-78
2023/04/17 03:13:44;;;;;;;79.28;32.50;;;9.60;99.90;;;;;;6069073;23;92606;-79
2023/04/17 03:16:12;;;;;;;80.15;31.00;;;9.60;99.90;;;;;;6067726;23;97909;-78
2023/04/17 03:18:40;;;;;;;75.07;34.85;;;9.70;99.90;;;;;;6068684;23;96544;-79
2023/04/17 03:21:08;;;;;;;91.90;34.75;;;9.70;99.90;;;;;;6069277;23;92455;-78
2023/04/17 03:23:35;;;;;;;77.70;33.80;;;9.70;99.90;;;;;;6069283;23;92507;-78
2023/04/17 03:26:05;;;;;;;74.90;33.38;;;9.70;99.90;;;;;;6068893;23;96043;-79
2023/04/17 03:28:32;;;;;;;89.35;35.97;;;9.70;99.90;;;;;;6045113;23;93991;-78
2023/04/17 03:31:01;;;;;;;86.43;32.90;;;9.70;99.90;;;;;;6045008;23;92460;-79
2023/04/17 03:33:30;;;;;;;69.47;32.30;;;9.80;99.90;;;;;;6069347;23;92370;-78
2023/04/17 03:35:57;;;;;;;80.15;33.65;;;9.80;99.90;;;;;;6044709;23;95936;-79
2023/04/17 03:38:25;;;;;;;70.82;32.97;;;9.70;99.90;;;;;;6069629;23;92552;-79
2023/04/17 03:40:53;;;;;;;72.03;33.22;;;9.70;99.90;;;;;;6043371;23;94775;-79
2023/04/17 03:43:22;;;;;;;76.20;32.17;;;9.70;99.90;;;;;;6069046;23;92783;-78
2023/04/17 03:45:50;;;;;;;81.75;32.85;;;9.70;99.90;;;;;;6068710;23;95644;-79
2023/04/17 03:48:17;;;;;;;88.57;33.10;;;9.70;99.90;;;;;;6045041;23;95176;-79
2023/04/17 03:50:47;;;;;;;86.97;31.92;;;9.60;99.90;;;;;;6068867;23;92982;-78
2023/04/17 03:53:14;;;;;;;80.95;31.08;;;9.60;99.90;;;;;;6069120;23;92490;-79
2023/04/17 03:55:41;;;;;;;77.50;33.70;;;9.60;99.90;;;;;;6069373;23;93158;-78
2023/04/17 03:58:14;;;;;;;82.90;34.67;;;9.50;99.90;;;;;;6069656;23;95007;-79
2023/04/17 04:00:42;;;;;;;74.97;29.75;;;9.50;99.90;;;;;;6069180;23;92469;-78
2023/04/17 04:03:09;;;;;;;94.15;32.95;;;9.50;99.90;;;;;;6095554;23;92614;-79
2023/04/17 04:05:40;;;;;;;87.90;36.58;;;9.50;99.90;;;;;;6067603;23;97810;-78
2023/04/17 04:08:09;;;;;;;73.95;32.40;;;9.50;99.90;;;;;;6068801;23;97451;-78
2023/04/17 04:10:49;;;;;;;81.30;35.28;;;9.50;99.90;;;;;;6050382;23;92449;-79
2023/04/17 04:13:20;;;;;;;79.60;34.78;;;9.50;99.90;;;;;;6045752;23;92458;-78
2023/04/17 04:15:53;;;;;;;79.13;34.17;;;9.60;99.90;;;;;;6068751;23;95263;-78
2023/04/17 04:18:24;;;;;;;89.30;34.63;;;9.50;99.90;;;;;;6045599;23;95840;-79
2023/04/17 04:20:51;;;;;;;76.03;35.88;;;9.50;99.90;;;;;;6068544;23;92500;-78
2023/04/17 04:23:26;;;;;;;76.38;33.65;;;9.50;99.90;;;;;;6069771;23;91818;-79
2023/04/17 04:25:55;;;;;;;85.38;35.70;;;9.50;99.90;;;;;;6068445;23;95916;-79
2023/04/17 04:28:42;;;;;;;83.40;35.28;;;9.50;99.90;;;;;;6049325;23;95482;-79
2023/04/17 04:31:18;;;;;;;89.68;34.08;;;9.50;99.90;;;;;;6067509;23;95399;-79
2023/04/17 04:33:46;;;;;;;71.63;31.20;;;9.50;99.90;;;;;;6068689;23;92544;-79
2023/04/17 04:36:19;;;;;;;66.43;31.90;;;9.40;99.90;;;;;;6044890;23;95674;-78
2023/04/17 04:38:50;;;;;;;81.25;29.50;;;9.50;99.90;;;;;;6068746;23;95203;-78
2023/04/17 04:41:28;;;;;;;77.82;31.27;;;9.40;99.90;;;;;;6047143;23;92414;-78
2023/04/17 04:43:56;;;;;;;79.55;32.25;;;9.40;99.90;;;;;;6068474;23;92578;-78
2023/04/17 04:46:23;;;;;;;94.28;32.13;;;9.40;99.90;;;;;;6044276;23;95500;-78
2023/04/17 04:48:50;;;;;;;69.10;30.08;;;9.40;99.90;;;;;;6068939;23;95580;-78
2023/04/17 04:51:17;;;;;;;67.93;30.10;;;9.40;99.90;;;;;;6044821;23;92469;-78
2023/04/17 04:53:46;;;;;;;63.65;29.23;;;9.40;99.90;;;;;;6044870;23;92523;-78
2023/04/17 04:56:14;;;;;;;59.15;27.88;;;9.40;99.90;;;;;;6066629;23;97552;-78
2023/04/17 04:58:43;;;;;;;64.57;29.33;;;9.30;99.90;;;;;;6044663;23;97921;-78
2023/04/17 05:01:11;;;;;;;62.85;28.45;;;9.30;99.90;;;;;;6068341;23;92526;-78
2023/04/17 05:03:46;;;;;;;52.78;26.58;;;9.30;99.90;;;;;;6045772;23;92470;-79
2023/04/17 05:06:20;;;;;;;63.58;28.63;;;9.30;99.90;;;;;;6068972;23;94324;-78
2023/04/17 05:08:52;;;;;;;64.80;28.00;;;9.30;99.90;;;;;;6045607;23;95312;-78
2023/04/17 05:11:19;;;;;;;64.35;29.27;;;9.30;99.90;;;;;;6044565;23;92472;-79
2023/04/17 05:13:46;;;;;;;81.32;32.95;;;9.30;99.90;;;;;;6045241;23;91763;-78
2023/04/17 05:16:22;;;;;;;71.72;27.17;;;9.40;99.90;;;;;;6068817;23;95279;-79
2023/04/17 05:18:49;;;;;;;75.78;30.30;;;9.40;99.90;;;;;;6044508;23;95425;-79
2023/04/17 05:21:23;;;;;;;80.30;29.80;;;9.40;99.90;;;;;;6045029;23;95470;-79
2023/04/17 05:23:51;;;;;;;73.47;31.25;;;9.40;99.90;;;;;;6044749;23;92533;-79
2023/04/17 05:26:21;;;;;;;66.70;30.30;;;9.40;99.90;;;;;;6068420;23;95795;-79
2023/04/17 05:28:49;;;;;;;67.57;30.38;;;9.50;99.90;;;;;;6068944;23;95402;-78
2023/04/17 05:31:21;;;;;;;70.35;27.45;;;9.50;99.90;;;;;;6068694;23;92876;-78
2023/04/17 05:33:48;;;;;;;79.57;31.70;;;9.50;99.90;;;;;;6044314;23;92487;-78
2023/04/17 05:36:16;;;;;;;82.18;34.25;;;9.50;99.90;;;;;;6044635;23;95670;-78
2023/04/17 05:38:44;;;;;;;80.03;31.90;;;9.50;99.90;;;;;;6068920;23;95339;-78
2023/04/17 05:41:12;;;;;;;117.53;37.72;;;9.50;99.90;;;;;;6069036;23;92547;-79
2023/04/17 05:43:39;;;;;;;91.63;34.03;;;9.50;99.90;;;;;;6044374;23;93403;-79
2023/04/17 05:46:06;;;;;;;103.82;35.92;;;9.60;99.90;;;;;;6042557;23;98060;-78
2023/04/17 05:48:33;;;;;;;82.72;31.35;;;9.70;99.90;;;;;;6068325;23;96451;-79
2023/04/17 05:51:02;;;;;;;68.85;30.17;;;9.70;99.90;;;;;;6068316;23;92914;-79
2023/04/17 05:53:30;;;;;;;82.63;31.30;;;9.70;99.90;;;;;;6044324;23;92488;-79
2023/04/17 05:55:58;;;;;;;91.47;31.95;;;9.80;99.90;;;;;;6068089;23;95663;-79
2023/04/17 05:58:24;;;;;;;68.65;32.38;;;9.80;99.90;;;;;;6092795;23;95826;-79
2023/04/17 06:00:55;;;;;;;70.78;32.05;;;9.90;99.90;;;;;;6068266;23;92441;-78
2023/04/17 06:03:24;;;;;;;75.10;31.27;;;9.90;99.90;;;;;;6045118;23;91729;-78
2023/04/17 06:05:59;;;;;;;74.03;29.52;;;9.90;99.90;;;;;;6068284;23;95477;-79
2023/04/17 06:08:26;;;;;;;63.75;31.05;;;9.90;99.90;;;;;;6094491;23;93046;-78
2023/04/17 06:10:55;;;;;;;77.28;32.08;;;10.00;99.90;;;;;;6067034;23;95368;-79
2023/04/17 06:13:23;;;;;;;66.90;31.92;;;10.10;99.90;;;;;;6068168;23;92529;-79
2023/04/17 06:15:50;;;;;;;68.70;29.10;;;10.20;99.90;;;;;;6043905;23;95657;-78
2023/04/17 06:18:17;;;;;;;68.28;31.85;;;10.20;99.90;;;;;;6067657;23;95285;-79
2023/04/17 06:20:45;;;;;;;63.70;31.33;;;10.20;99.90;;;;;;6068363;23;92413;-79
2023/04/17 06:23:12;;;;;;;60.15;31.38;;;10.20;99.90;;;;;;6068196;23;92874;-79
2023/04/17 06:25:39;;;;;;;67.15;33.88;;;10.20;99.90;;;;;;6094363;23;93202;-79
2023/04/17 06:28:06;;;;;;;62.45;29.33;;;10.30;99.90;;;;;;6044255;23;95268;-79
2023/04/17 06:30:33;;;;;;;63.78;32.25;;;10.20;99.90;;;;;;6068228;23;92533;-79
2023/04/17 06:33:02;;;;;;;62.20;34.22;;;10.30;99.90;;;;;;6067911;23;93001;-79
2023/04/17 06:35:30;;;;;;;55.90;32.50;;;10.40;99.90;;;;;;6066153;23;96860;-79
2023/04/17 06:38:09;;;;;;;58.22;33.17;;;10.40;99.90;;;;;;6045770;23;97476;-79
2023/04/17 06:40:37;;;;;;;56.47;30.98;;;10.40;99.90;;;;;;6067824;23;92388;-79
2023/04/17 06:43:05;;;;;;;47.17;28.48;;;10.50;99.90;;;;;;6067945;23;92532;-79
2023/04/17 06:45:36;;;;;;;42.33;27.27;;;10.50;99.90;;;;;;6068106;23;95539;-78
2023/04/17 06:48:05;;;;;;;51.58;30.45;;;10.60;99.90;;;;;;6067405;23;95713;-79
2023/04/17 06:50:32;;;;;;;47.88;30.30;;;10.70;99.90;;;;;;6094295;23;92454;-79
2023/04/17 06:52:59;;;;;;;51.80;29.73;;;10.90;99.90;;;;;;6044120;23;91774;-79
2023/04/17 06:55:26;;;;;;;48.42;30.10;;;11.00;99.90;;;;;;6093254;23;107901;-79
2023/04/17 06:57:53;;;;;;;45.00;30.00;;;11.10;99.90;;;;;;6067702;23;95491;-79
2023/04/17 07:00:21;;;;;;;48.25;31.10;;;11.20;99.90;;;;;;6092531;23;95354;-79
2023/04/17 07:02:47;;;;;;;46.05;29.15;;;11.30;99.90;;;;;;6094173;23;92419;-79
2023/04/17 07:05:15;;;;;;;48.03;30.08;;;11.40;99.90;;;;;;6093770;23;93198;-79
2023/04/17 07:07:42;;;;;;;43.47;29.60;;;11.60;99.90;;;;;;6093029;23;92396;-79
2023/04/17 07:10:09;;;;;;;45.45;30.60;;;11.70;99.90;;;;;;6068036;23;92460;-79
2023/04/17 07:12:36;;;;;;;40.90;27.88;;;11.80;99.90;;;;;;6045200;23;92503;-79
2023/04/17 07:15:03;;;;;;;44.00;28.80;;;11.90;99.90;;;;;;6095532;23;93087;-79
2023/04/17 07:17:30;;;;;;;42.00;29.02;;;12.00;99.90;;;;;;6045045;23;107822;-79
2023/04/17 07:19:57;;;;;;;42.17;29.90;;;12.10;99.90;;;;;;6069251;23;92409;-79
2023/04/17 07:22:24;;;;;;;37.17;25.48;;;12.20;99.90;;;;;;6069159;23;92420;-79
2023/04/17 07:24:53;;;;;;;40.35;27.60;;;12.20;99.90;;;;;;6043479;23;98110;-79
2023/04/17 07:27:20;;;;;;;39.75;27.75;;;12.20;99.90;;;;;;6095009;23;95277;-79
2023/04/17 07:29:53;;;;;;;41.90;27.88;;;12.10;99.90;;;;;;6095549;23;92368;-79
2023/04/17 07:32:20;;;;;;;37.08;26.88;;;12.20;99.90;;;;;;6095538;23;92323;-79
2023/04/17 07:34:47;;;;;;;32.70;24.38;;;12.30;99.90;;;;;;6094833;23;93243;-79
2023/04/17 07:37:14;;;;;;;33.53;25.92;;;12.40;99.90;;;;;;6094931;23;92462;-79
2023/04/17 07:39:42;;;;;;;32.92;24.58;;;12.50;99.90;;;;;;6069210;23;92431;-79
2023/04/17 07:42:10;;;;;;;35.13;26.17;;;12.60;99.90;;;;;;6095936;23;91691;-79
2023/04/17 07:44:39;;;;;;;33.22;26.15;;;12.70;99.90;;;;;;6095426;23;93160;-79
2023/04/17 07:47:06;;;;;;;32.88;24.85;;;12.90;99.90;;;;;;6069375;23;92986;-79
2023/04/17 07:49:34;;;;;;;31.73;24.38;;;13.00;99.90;;;;;;6067766;23;96704;-79
2023/04/17 07:52:01;;;;;;;30.50;24.25;;;13.20;99.90;;;;;;6044884;23;92465;-79
2023/04/17 07:54:29;;;;;;;26.88;23.33;;;13.40;99.90;;;;;;6095270;23;93156;-79
2023/04/17 07:57:01;;;;;;;30.27;23.27;;;13.50;99.90;;;;;;6095331;23;93062;-79
2023/04/17 07:59:29;;;;;;;25.98;23.13;;;13.60;99.90;;;;;;6095319;23;93221;-79
2023/04/17 08:01:56;;;;;;;24.80;22.10;;;13.70;99.90;;;;;;6069054;23;92473;-79
2023/04/17 08:04:24;;;;;;;27.48;22.08;;;13.80;99.90;;;;;;6095023;23;93127;-79
2023/04/17 08:06:51;;;;;;;25.13;21.73;;;13.80;99.90;;;;;;6070004;23;92851;-79
2023/04/17 08:09:20;;;;;;;26.65;22.70;;;13.90;99.90;;;;;;6069228;23;92402;-79
2023/04/17 08:11:47;;;;;;;27.85;23.08;;;13.90;99.90;;;;;;6069452;23;92468;-79
2023/04/17 08:14:23;;;;;;;25.73;22.23;;;14.00;99.90;;;;;;6093503;23;95744;-79
2023/04/17 08:16:50;;;;;;;25.60;22.88;;;14.20;99.90;;;;;;6069249;23;95757;-79
2023/04/17 08:19:17;;;;;;;29.33;23.45;;;14.50;99.90;;;;;;6068469;23;105778;-79
2023/04/17 08:21:46;;;;;;;25.95;22.92;;;14.60;99.90;;;;;;6068417;23;92600;-79
2023/04/17 08:24:13;;;;;;;29.15;23.23;;;14.80;99.90;;;;;;6095260;23;93056;-79
2023/04/17 08:26:42;;;;;;;24.92;22.08;;;15.00;99.90;;;;;;6094959;23;93084;-79
2023/04/17 08:29:09;;;;;;;27.02;23.50;;;15.00;99.90;;;;;;6069144;23;92294;-79
2023/04/17 08:31:38;;;;;;;26.02;23.23;;;15.10;99.90;;;;;;6069219;23;91721;-79
2023/04/17 08:34:05;;;;;;;25.52;22.90;;;15.20;99.90;;;;;;6094706;23;93770;-79
2023/04/17 08:36:40;;;;;;;29.05;23.83;;;15.40;99.90;;;;;;6046124;23;94101;-79
2023/04/17 08:39:09;;;;;;;29.83;24.77;;;15.50;99.90;;;;;;6093642;23;94881;-79
2023/04/17 08:41:59;;;;;;;25.98;23.15;;;15.70;99.90;;;;;;6069575;23;92415;-79
2023/04/17 08:44:26;;;;;;;27.52;24.02;;;16.00;99.90;;;;;;6068581;23;95836;-79
2023/04/17 08:46:57;;;;;;;26.23;22.98;;;16.10;99.90;;;;;;6094764;23;94925;-79
2023/04/17 08:49:28;;;;;;;23.38;18.95;;;16.30;99.90;;;;;;6069243;23;92472;-79
2023/04/17 08:51:55;;;;;;;28.52;23.23;;;16.20;99.90;;;;;;6095293;23;92290;-79
2023/04/17 08:54:22;;;;;;;25.75;23.02;;;16.30;99.90;;;;;;6094729;23;93188;-79
2023/04/17 08:56:49;;;;;;;24.15;20.95;;;16.50;99.90;;;;;;6095377;23;92935;-79
2023/04/17 08:59:16;;;;;;;26.30;22.45;;;16.40;99.90;;;;;;6095055;23;92361;-79
2023/04/17 09:02:03;;;;;;;22.10;19.52;;;16.60;99.90;;;;;;6044998;23;92403;-79
2023/04/17 09:04:42;;;;;;;22.13;19.77;;;16.60;99.90;;;;;;6093124;23;96050;-79
2023/04/17 09:07:11;;;;;;;19.75;17.42;;;16.60;99.90;;;;;;6044654;23;97924;-79
2023/04/17 09:09:51;;;;;;;23.08;20.00;;;16.50;99.90;;;;;;6068451;23;92914;-79
2023/04/17 09:12:24;;;;;;;19.58;16.40;;;16.60;99.90;;;;;;6045086;23;92531;-79
2023/04/17 09:14:51;;;;;;;21.42;19.15;;;16.50;99.90;;;;;;6044695;23;95802;-79
2023/04/17 09:17:19;;;;;;;25.17;18.15;;;16.40;99.90;;;;;;6094513;23;101809;-79
2023/04/17 09:20:07;;;;;;;25.48;19.67;;;16.40;99.90;;;;;;6095299;23;92304;-79
2023/04/17 09:22:37;;;;;;;20.42;17.83;;;16.60;99.90;;;;;;6069470;23;91589;-79
2023/04/17 09:25:13;;;;;;;18.23;15.43;;;16.60;99.90;;;;;;6068942;23;92909;-79
2023/04/17 09:27:40;;;;;;;17.95;16.08;;;16.70;99.90;;;;;;6094884;23;93019;-79
2023/04/17 09:30:07;;;;;;;20.80;16.45;;;16.50;99.90;;;;;;6067274;23;94873;-79
2023/04/17 09:32:34;;;;;;;18.55;14.38;;;16.50;99.90;;;;;;6068653;23;92476;-79
2023/04/17 09:35:03;;;;;;;16.33;14.57;;;16.50;99.90;;;;;;6068829;23;93044;-79
2023/04/17 09:37:49;;;;;;;17.85;15.95;;;16.60;99.90;;;;;;6094448;23;92699;-79
2023/04/17 09:40:21;;;;;;;16.85;15.05;;;16.80;99.90;;;;;;6068770;23;92536;-79
2023/04/17 09:42:55;;;;;;;19.42;17.40;;;16.90;99.90;;;;;;6068889;23;92446;-79
2023/04/17 09:45:23;;;;;;;18.73;16.85;;;17.20;99.90;;;;;;6069008;23;93167;-79
2023/04/17 09:47:54;;;;;;;20.42;15.68;;;17.30;99.90;;;;;;6068708;23;96050;-79
2023/04/17 09:50:23;;;;;;;17.73;14.52;;;17.50;99.90;;;;;;6069209;23;92466;-79
2023/04/17 09:52:51;;;;;;;18.30;16.38;;;17.50;99.90;;;;;;6044005;23;92438;-79
2023/04/17 09:55:20;;;;;;;19.90;16.17;;;17.40;99.90;;;;;;6093168;23;95447;-79
2023/04/17 09:57:53;;;;;;;17.20;15.10;;;17.40;99.90;;;;;;6094328;23;94191;-79
2023/04/17 10:00:22;;;;;;;19.93;16.87;;;17.50;99.90;;;;;;6044608;23;92581;-79
2023/04/17 10:02:50;;;;;;;17.20;14.77;;;17.50;99.90;;;;;;6094523;23;93723;-79
2023/04/17 10:05:22;;;;;;;18.60;16.65;;;17.70;99.90;;;;;;6068575;23;93772;-79
2023/04/17 10:07:49;;;;;;;17.48;15.80;;;17.60;99.90;;;;;;6094348;23;93090;-79
2023/04/17 10:10:24;;;;;;;15.75;14.25;;;17.60;99.90;;;;;;6094654;23;92339;-79
2023/04/17 10:12:57;;;;;;;16.98;15.10;;;17.60;99.60;;;;;;6094932;23;91547;-79
2023/04/17 10:15:24;;;;;;;18.83;16.30;;;17.50;99.60;;;;;;6094880;23;93133;-79
2023/04/17 10:17:52;;;;;;;17.10;14.95;;;17.40;99.80;;;;;;6094327;23;92695;-79
2023/04/17 10:20:22;;;;;;;16.10;14.15;;;17.40;99.80;;;;;;6066808;23;94900;-79
2023/04/17 10:22:54;;;;;;;17.77;14.57;;;17.40;99.40;;;;;;6068588;23;92478;-79
2023/04/17 10:25:28;;;;;;;17.88;15.95;;;17.30;99.80;;;;;;6069849;23;93187;-79
2023/04/17 10:27:59;;;;;;;17.55;15.10;;;17.10;99.50;;;;;;6068256;23;93058;-79
2023/04/17 10:30:50;;;;;;;16.75;15.10;;;17.00;99.90;;;;;;6094607;23;92308;-79
2023/04/17 10:33:20;;;;;;;15.40;13.80;;;17.20;99.90;;;;;;6044716;23;92445;-79
2023/04/17 10:35:48;;;;;;;15.93;14.30;;;17.10;99.50;;;;;;6092874;23;94148;-79
2023/04/17 10:38:17;;;;;;;15.02;12.52;;;17.10;98.80;;;;;;6094389;23;93176;-79
2023/04/17 10:40:44;;;;;;;15.02;13.00;;;17.10;98.20;;;;;;6094522;23;92947;-79
2023/04/17 10:43:24;;;;;;;14.40;12.90;;;17.00;99.00;;;;;;6094677;23;92300;-79
2023/04/17 10:46:00;;;;;;;15.80;13.27;;;17.10;99.20;;;;;;6093609;23;94705;-79
2023/04/17 10:48:34;;;;;;;14.95;11.43;;;17.10;98.10;;;;;;6069310;23;96407;-79
2023/04/17 10:51:25;;;;;;;16.65;14.75;;;17.10;98.50;;;;;;6069583;23;92387;-79
2023/04/17 10:54:01;;;;;;;15.10;11.52;;;17.10;98.70;;;;;;6095041;23;92351;-79
2023/04/17 10:56:38;;;;;;;13.38;12.07;;;17.10;98.90;;;;;;6069307;23;95834;-79
2023/04/17 10:59:09;;;;;;;13.00;11.70;;;17.20;98.80;;;;;;6095513;23;92402;-79
2023/04/17 11:01:47;;;;;;;14.70;13.30;;;17.20;98.80;;;;;;6069486;23;92433;-79
2023/04/17 11:04:25;;;;;;;16.70;14.82;;;17.30;98.60;;;;;;6096185;23;91572;-79
2023/04/17 11:06:54;;;;;;;13.43;12.15;;;17.50;98.50;;;;;;6068970;23;95803;-79
2023/04/17 11:09:22;;;;;;;14.32;12.82;;;17.60;98.50;;;;;;6095389;23;94877;-79
2023/04/17 11:11:49;;;;;;;14.63;12.68;;;17.60;98.20;;;;;;6067416;23;94822;-79
2023/04/17 11:14:18;;;;;;;16.08;13.82;;;17.70;98.10;;;;;;6069219;23;93012;-79
2023/04/17 11:16:48;;;;;;;15.50;14.00;;;17.80;98.10;;;;;;6045134;23;95948;-79
2023/04/17 11:19:20;;;;;;;18.75;14.23;;;17.80;98.10;;;;;;6095409;23;93321;-79
2023/04/17 11:21:48;;;;;;;16.20;14.60;;;18.10;98.10;;;;;;6095510;23;92314;-79
2023/04/17 11:24:29;;;;;;;16.60;14.88;;;18.20;97.80;;;;;;6044748;23;99604;-79
2023/04/17 11:26:58;;;;;;;14.77;13.05;;;18.20;98.00;;;;;;6069321;23;93104;-79
2023/04/17 11:29:26;;;;;;;17.13;14.93;;;17.90;98.20;;;;;;6095835;23;92698;-79
2023/04/17 11:31:55;;;;;;;17.73;15.13;;;17.70;98.60;;;;;;6095354;23;92367;-79
2023/04/17 11:34:25;;;;;;;16.67;14.82;;;17.80;99.00;;;;;;6095532;23;92381;-78
2023/04/17 11:36:57;;;;;;;17.30;15.52;;;17.90;98.90;;;;;;6067577;23;98152;-79
2023/04/17 11:39:27;;;;;;;16.30;14.60;;;17.70;98.90;;;;;;6095198;23;95440;-79
2023/04/17 11:41:55;;;;;;;15.02;12.82;;;17.60;99.00;;;;;;6095171;23;92404;-79
2023/04/17 11:44:23;;;;;;;17.00;15.40;;;17.40;98.80;;;;;;6069754;23;92412;-79
2023/04/17 11:46:51;;;;;;;15.55;13.77;;;17.50;99.00;;;;;;6068679;23;94463;-79
2023/04/17 11:49:28;;;;;;;15.73;14.02;;;17.40;99.40;;;;;;6095265;23;92966;-79
2023/04/17 11:51:58;;;;;;;15.00;13.40;;;17.50;98.90;;;;;;6069189;23;93223;-79
2023/04/17 11:54:27;;;;;;;17.50;14.40;;;17.50;98.80;;;;;;6070117;23;91740;-79
2023/04/17 11:57:02;;;;;;;14.05;12.60;;;17.50;98.90;;;;;;6094523;23;101168;-79
2023/04/17 11:59:40;;;;;;;15.23;13.73;;;17.70;99.10;;;;;;6095144;23;93147;-79
2023/04/17 12:02:08;;;;;;;14.57;11.30;;;17.80;98.60;;;;;;6093601;23;94821;-79
2023/04/17 12:04:38;;;;;;;14.52;13.02;;;17.70;97.40;;;;;;6095351;23;92315;-79
2023/04/17 12:07:06;;;;;;;18.27;14.88;;;17.80;97.50;;;;;;6095209;23;93240;-79
2023/04/17 12:09:34;;;;;;;16.73;13.65;;;17.90;97.20;;;;;;6068872;23;94525;-79
2023/04/17 12:12:05;;;;;;;17.35;13.57;;;17.90;97.80;;;;;;6095077;23;92331;-79
2023/04/17 12:14:32;;;;;;;15.07;13.23;;;17.90;98.50;;;;;;6069408;23;92517;-79
2023/04/17 12:17:00;;;;;;;15.98;13.88;;;17.80;97.40;;;;;;6069312;23;93242;-79
2023/04/17 12:19:28;;;;;;;12.45;11.30;;;17.60;97.80;;;;;;6045321;23;95450;-79
2023/04/17 12:21:55;;;;;;;15.15;12.85;;;17.40;96.60;;;;;;6095194;23;92493;-79
2023/04/17 12:24:23;;;;;;;17.02;12.85;;;17.50;97.80;;;;;;6095258;23;92379;-79
2023/04/17 12:26:51;;;;;;;13.98;11.27;;;17.50;98.00;;;;;;6067866;23;95573;-78
2023/04/17 12:29:19;;;;;;;12.13;10.77;;;17.60;96.90;;;;;;6094449;23;107417;-78
2023/04/17 12:31:55;;;;;;;18.90;12.63;;;17.70;96.20;;;;;;6071220;23;92472;-79
2023/04/17 12:34:22;;;;;;;13.18;11.73;;;17.70;96.80;;;;;;6094443;23;97413;-79
2023/04/17 12:36:50;;;;;;;15.60;13.25;;;17.60;96.80;;;;;;6045029;23;96847;-79
2023/04/17 12:39:17;;;;;;;13.88;12.48;;;17.60;96.80;;;;;;6044769;23;95978;-79
2023/04/17 12:41:44;;;;;;;14.68;13.02;;;17.60;96.90;;;;;;6069444;23;92493;-79